createdAt,value
2022-11-15T00:00:40.259Z,999.07
2022-11-15T00:01:40.282Z,999.06
2022-11-15T00:02:40.242Z,999.09
2022-11-15T00:03:40.208Z,999.08
2022-11-15T00:04:40.229Z,999.04
2022-11-15T00:05:40.280Z,999.00
2022-11-15T00:06:40.178Z,999.04
2022-11-15T00:07:55.114Z,999.05
2022-11-15T00:08:40.480Z,999.06
2022-11-15T00:09:44.887Z,999.04
2022-11-15T00:10:40.180Z,999.03
2022-11-15T00:11:40.137Z,999.01
2022-11-15T00:12:40.136Z,999.06
2022-11-15T00:13:40.306Z,999.11
2022-11-15T00:14:40.131Z,998.99
2022-11-15T00:15:40.248Z,998.99
2022-11-15T00:16:40.594Z,999.00
2022-11-15T00:17:40.105Z,998.98
2022-11-15T00:18:40.095Z,998.97
2022-11-15T00:19:40.085Z,998.99
2022-11-15T00:20:40.177Z,998.97
2022-11-15T00:21:40.096Z,998.96
2022-11-15T00:22:40.085Z,998.95
2022-11-15T00:23:40.056Z,998.94
2022-11-15T00:24:40.054Z,999.01
2022-11-15T00:25:40.135Z,998.96
2022-11-15T00:26:40.044Z,998.97
2022-11-15T00:27:40.031Z,998.89
2022-11-15T00:28:40.033Z,998.91
2022-11-15T00:29:40.851Z,998.91
2022-11-15T00:30:41.014Z,998.89
2022-11-15T00:31:40.003Z,998.88
2022-11-15T00:32:40.010Z,998.82
2022-11-15T00:33:39.995Z,998.81
2022-11-15T00:34:40.003Z,998.85
2022-11-15T00:35:40.002Z,998.81
2022-11-15T00:36:39.981Z,998.88
2022-11-15T00:37:39.964Z,998.85
2022-11-15T00:38:39.973Z,998.88
2022-11-15T00:39:39.991Z,998.85
2022-11-15T00:40:39.979Z,998.82
2022-11-15T00:41:39.982Z,998.86
2022-11-15T00:42:39.972Z,998.81
2022-11-15T00:43:39.939Z,998.77
2022-11-15T00:44:40.572Z,998.76
2022-11-15T00:45:40.853Z,998.75
2022-11-15T00:46:39.957Z,998.79
2022-11-15T00:47:39.912Z,998.70
2022-11-15T00:48:39.910Z,998.65
2022-11-15T00:49:39.882Z,998.72
2022-11-15T00:50:40.070Z,998.64
2022-11-15T00:51:39.871Z,998.56
2022-11-15T00:52:39.866Z,998.62
2022-11-15T00:53:39.857Z,998.66
2022-11-15T00:54:39.848Z,998.63
2022-11-15T00:55:39.859Z,998.56
2022-11-15T00:56:39.985Z,998.51
2022-11-15T00:57:39.957Z,998.55
2022-11-15T00:58:39.827Z,998.59
2022-11-15T00:59:39.838Z,998.56
2022-11-15T01:00:39.866Z,998.54
2022-11-15T01:01:39.806Z,998.61
2022-11-15T01:02:40.027Z,998.57
2022-11-15T01:03:39.786Z,998.64
2022-11-15T01:04:39.842Z,998.55
2022-11-15T01:05:39.808Z,998.61
2022-11-15T01:06:39.885Z,998.62
2022-11-15T01:07:39.764Z,998.61
2022-11-15T01:08:39.774Z,998.62
2022-11-15T01:09:39.757Z,998.61
2022-11-15T01:10:39.774Z,998.64
2022-11-15T01:11:39.737Z,998.67
2022-11-15T01:12:39.724Z,998.64
2022-11-15T01:13:39.722Z,998.64
2022-11-15T01:14:39.722Z,998.59
2022-11-15T01:15:39.724Z,998.60
2022-11-15T01:16:39.927Z,998.60
2022-11-15T01:17:39.715Z,998.53
2022-11-15T01:18:39.697Z,998.51
2022-11-15T01:19:40.232Z,998.54
2022-11-15T01:20:39.874Z,998.56
2022-11-15T01:21:39.671Z,998.55
2022-11-15T01:22:39.683Z,998.56
2022-11-15T01:23:39.661Z,998.53
2022-11-15T01:24:39.685Z,998.58
2022-11-15T01:25:39.911Z,998.55
2022-11-15T01:26:40.330Z,998.51
2022-11-15T01:27:40.149Z,998.55
2022-11-15T01:28:39.811Z,998.55
2022-11-15T01:29:39.610Z,998.41
2022-11-15T01:30:39.637Z,998.45
2022-11-15T01:31:39.604Z,998.41
2022-11-15T01:32:39.838Z,998.45
2022-11-15T01:33:40.040Z,998.39
2022-11-15T01:34:39.590Z,998.44
2022-11-15T01:35:39.589Z,998.34
2022-11-15T01:36:40.070Z,998.33
2022-11-15T01:37:40.069Z,998.32
2022-11-15T01:38:40.282Z,998.33
2022-11-15T01:39:39.869Z,998.27
2022-11-15T01:40:40.299Z,998.30
2022-11-15T01:41:40.299Z,998.24
2022-11-15T01:42:39.536Z,998.31
2022-11-15T01:43:40.409Z,998.24
2022-11-15T01:44:39.518Z,998.19
2022-11-15T01:45:39.528Z,998.16
2022-11-15T01:46:39.728Z,998.21
2022-11-15T01:47:39.738Z,998.26
2022-11-15T01:48:39.528Z,998.27
2022-11-15T01:49:39.748Z,998.24
2022-11-15T01:50:40.956Z,998.22
2022-11-15T01:51:39.968Z,998.18
2022-11-15T01:52:39.966Z,998.21
2022-11-15T01:53:39.450Z,998.15
2022-11-15T01:54:39.986Z,998.15
2022-11-15T01:55:39.986Z,998.16
2022-11-15T01:56:40.197Z,998.14
2022-11-15T01:57:39.784Z,998.12
2022-11-15T01:58:39.597Z,998.16
2022-11-15T01:59:40.224Z,998.17
2022-11-15T02:00:40.257Z,998.22
2022-11-15T02:01:39.404Z,998.25
2022-11-15T02:02:39.404Z,998.21
2022-11-15T02:03:40.275Z,998.13
2022-11-15T02:04:39.433Z,998.13
2022-11-15T02:05:39.382Z,998.17
2022-11-15T02:06:39.490Z,998.17
2022-11-15T02:07:39.473Z,998.19
2022-11-15T02:08:39.453Z,998.20
2022-11-15T02:09:39.454Z,998.17
2022-11-15T02:10:39.672Z,998.24
2022-11-15T02:11:39.673Z,998.21
2022-11-15T02:12:39.886Z,998.20
2022-11-15T02:13:39.913Z,998.18
2022-11-15T02:14:39.902Z,998.16
2022-11-15T02:15:39.344Z,998.19
2022-11-15T02:16:39.916Z,998.21
2022-11-15T02:17:40.141Z,998.15
2022-11-15T02:18:39.511Z,998.16
2022-11-15T02:19:39.293Z,998.09
2022-11-15T02:20:39.864Z,998.17
2022-11-15T02:21:40.081Z,998.08
2022-11-15T02:22:39.956Z,998.10
2022-11-15T02:23:40.149Z,998.09
2022-11-15T02:24:39.281Z,998.05
2022-11-15T02:25:40.213Z,998.15
2022-11-15T02:26:40.182Z,998.16
2022-11-15T02:27:40.402Z,998.12
2022-11-15T02:28:39.840Z,998.05
2022-11-15T02:29:39.217Z,998.04
2022-11-15T02:30:40.240Z,998.05
2022-11-15T02:31:39.609Z,997.96
2022-11-15T02:32:39.402Z,997.99
2022-11-15T02:33:39.200Z,997.90
2022-11-15T02:34:39.194Z,997.98
2022-11-15T02:35:39.180Z,997.95
2022-11-15T02:36:39.445Z,997.94
2022-11-15T02:37:40.078Z,997.98
2022-11-15T02:38:39.994Z,997.96
2022-11-15T02:39:40.358Z,997.93
2022-11-15T02:40:40.048Z,997.92
2022-11-15T02:41:39.958Z,997.90
2022-11-15T02:42:39.136Z,997.95
2022-11-15T02:43:39.219Z,997.86
2022-11-15T02:44:39.306Z,997.94
2022-11-15T02:45:39.116Z,997.94
2022-11-15T02:46:39.417Z,997.95
2022-11-15T02:47:39.314Z,997.90
2022-11-15T02:48:39.516Z,997.88
2022-11-15T02:49:39.074Z,997.84
2022-11-15T02:50:39.533Z,997.80
2022-11-15T02:51:39.536Z,997.79
2022-11-15T02:52:39.548Z,997.81
2022-11-15T02:53:39.569Z,997.83
2022-11-15T02:54:39.198Z,997.80
2022-11-15T02:55:39.524Z,997.78
2022-11-15T02:56:39.795Z,997.82
2022-11-15T02:57:39.785Z,997.80
2022-11-15T02:58:39.014Z,997.82
2022-11-15T02:59:39.004Z,997.76
2022-11-15T03:00:39.015Z,997.71
2022-11-15T03:01:38.994Z,997.78
2022-11-15T03:02:39.004Z,997.78
2022-11-15T03:03:39.024Z,997.80
2022-11-15T03:04:39.206Z,997.84
2022-11-15T03:05:39.043Z,997.82
2022-11-15T03:06:38.952Z,997.85
2022-11-15T03:07:38.943Z,997.77
2022-11-15T03:08:39.022Z,997.82
2022-11-15T03:09:39.031Z,997.75
2022-11-15T03:10:38.943Z,997.72
2022-11-15T03:11:39.044Z,997.72
2022-11-15T03:12:38.955Z,997.72
2022-11-15T03:13:38.942Z,997.68
2022-11-15T03:14:38.916Z,997.68
2022-11-15T03:15:38.913Z,997.59
2022-11-15T03:18:04.855Z,997.63
2022-11-15T03:19:04.844Z,997.61
2022-11-15T03:20:04.845Z,997.62
2022-11-15T03:21:04.836Z,997.62
2022-11-15T03:22:04.950Z,997.60
2022-11-15T03:23:04.931Z,997.57
2022-11-15T03:24:04.872Z,997.60
2022-11-15T03:25:04.793Z,997.64
2022-11-15T03:26:04.962Z,997.58
2022-11-15T03:27:04.780Z,997.60
2022-11-15T03:28:05.169Z,997.63
2022-11-15T03:29:05.171Z,997.61
2022-11-15T03:30:04.786Z,997.62
2022-11-15T03:31:05.190Z,997.65
2022-11-15T03:32:05.220Z,997.63
2022-11-15T03:33:05.413Z,997.65
2022-11-15T03:34:05.411Z,997.65
2022-11-15T03:35:05.422Z,997.66
2022-11-15T03:36:05.432Z,997.68
2022-11-15T03:37:04.807Z,997.71
2022-11-15T03:38:05.259Z,997.66
2022-11-15T03:39:05.650Z,997.67
2022-11-15T03:40:05.019Z,997.69
2022-11-15T03:41:05.519Z,997.71
2022-11-15T03:42:05.660Z,997.65
2022-11-15T03:43:04.879Z,997.70
2022-11-15T03:44:04.668Z,997.72
2022-11-15T03:45:04.673Z,997.64
2022-11-15T03:46:04.681Z,997.67
2022-11-15T03:47:04.652Z,997.68
2022-11-15T03:48:04.631Z,997.71
2022-11-15T03:49:04.628Z,997.70
2022-11-15T03:50:04.618Z,997.71
2022-11-15T03:51:04.718Z,997.68
2022-11-15T03:52:04.700Z,997.77
2022-11-15T03:53:04.707Z,997.70
2022-11-15T03:54:04.707Z,997.75
2022-11-15T03:55:04.606Z,997.71
2022-11-15T03:56:06.848Z,997.70
2022-11-15T03:57:04.585Z,997.70
2022-11-15T03:58:04.567Z,997.75
2022-11-15T03:59:04.561Z,997.66
2022-11-15T04:00:04.576Z,997.67
2022-11-15T04:01:04.818Z,997.68
2022-11-15T04:33:35.640Z,997.54
2022-11-15T04:34:35.619Z,997.52
2022-11-15T04:35:35.620Z,997.57
2022-11-15T04:36:35.620Z,997.56
2022-11-15T04:37:36.472Z,997.58
2022-11-15T04:38:35.631Z,997.61
2022-11-15T04:39:35.626Z,997.64
2022-11-15T04:40:35.593Z,997.64
2022-11-15T04:41:35.608Z,997.65
2022-11-15T04:42:35.578Z,997.65
2022-11-15T04:43:35.877Z,997.67
2022-11-15T04:44:35.599Z,997.61
2022-11-15T04:45:35.608Z,997.62
2022-11-15T04:46:35.558Z,997.60
2022-11-15T04:47:35.537Z,997.58
2022-11-15T04:48:35.538Z,997.55
2022-11-15T04:49:35.525Z,997.61
2022-11-15T04:50:35.520Z,997.58
2022-11-15T04:51:35.528Z,997.56
2022-11-15T04:52:35.519Z,997.54
2022-11-15T04:53:35.508Z,997.54
2022-11-15T04:54:35.486Z,997.54
2022-11-15T04:55:35.493Z,997.54
2022-11-15T04:56:35.495Z,997.54
2022-11-15T04:57:35.475Z,997.53
2022-11-15T04:58:36.510Z,997.45
2022-11-15T04:59:35.477Z,997.53
2022-11-15T05:00:35.456Z,997.45
2022-11-15T05:01:37.547Z,997.46
2022-11-15T05:02:35.433Z,997.44
2022-11-15T05:03:35.598Z,997.52
2022-11-15T05:04:35.687Z,997.49
2022-11-15T05:05:35.426Z,997.46
2022-11-15T05:06:35.447Z,997.46
2022-11-15T05:07:35.532Z,997.47
2022-11-15T05:08:35.394Z,997.43
2022-11-15T05:09:35.385Z,997.44
2022-11-15T05:10:35.384Z,997.49
2022-11-15T05:11:35.394Z,997.42
2022-11-15T05:12:35.362Z,997.40
2022-11-15T05:13:35.362Z,997.46
2022-11-15T05:14:35.345Z,997.45
2022-11-15T05:15:35.353Z,997.44
2022-11-15T05:16:35.352Z,997.44
2022-11-15T05:17:35.347Z,997.50
2022-11-15T05:18:35.650Z,997.48
2022-11-15T05:19:35.366Z,997.52
2022-11-15T05:20:36.183Z,997.54
2022-11-15T05:21:35.393Z,997.53
2022-11-15T05:22:35.301Z,997.49
2022-11-15T05:23:35.292Z,997.53
2022-11-15T05:24:35.284Z,997.47
2022-11-15T05:25:35.291Z,997.44
2022-11-15T05:26:35.290Z,997.44
2022-11-15T05:27:35.271Z,997.39
2022-11-15T05:28:35.268Z,997.40
2022-11-15T05:29:35.921Z,997.39
2022-11-15T05:30:35.241Z,997.33
2022-11-15T05:31:35.271Z,997.37
2022-11-15T05:32:35.234Z,997.40
2022-11-15T05:33:35.231Z,997.40
2022-11-15T05:34:35.229Z,997.43
2022-11-15T05:35:35.220Z,997.46
2022-11-15T05:36:35.240Z,997.43
2022-11-15T05:37:35.220Z,997.40
2022-11-15T05:38:35.995Z,997.40
2022-11-15T05:39:36.149Z,997.39
2022-11-15T05:40:36.062Z,997.42
2022-11-15T05:41:35.959Z,997.44
2022-11-15T05:42:36.122Z,997.41
2022-11-15T05:43:36.134Z,997.43
2022-11-15T05:44:36.186Z,997.48
2022-11-15T05:45:35.748Z,997.47
2022-11-15T05:46:35.990Z,997.46
2022-11-15T05:47:36.156Z,997.48
2022-11-15T05:48:35.167Z,997.50
2022-11-15T05:49:35.161Z,997.47
2022-11-15T05:50:35.670Z,997.46
2022-11-15T05:51:36.180Z,997.46
2022-11-15T05:52:35.930Z,997.43
2022-11-15T05:53:36.088Z,997.41
2022-11-15T05:54:35.116Z,997.42
2022-11-15T05:55:35.205Z,997.38
2022-11-15T05:56:35.079Z,997.38
2022-11-15T05:57:35.078Z,997.40
2022-11-15T05:58:35.860Z,997.40
2022-11-15T05:59:35.106Z,997.36
2022-11-15T06:00:35.928Z,997.33
2022-11-15T06:01:35.535Z,997.34
2022-11-15T06:02:36.067Z,997.35
2022-11-15T06:03:35.149Z,997.35
2022-11-15T06:04:35.460Z,997.32
2022-11-15T06:05:35.269Z,997.33
2022-11-15T06:06:35.025Z,997.34
2022-11-15T06:07:35.811Z,997.28
2022-11-15T06:08:35.925Z,997.27
2022-11-15T06:09:35.864Z,997.27
2022-11-15T06:10:35.006Z,997.25
2022-11-15T06:11:35.898Z,997.24
2022-11-15T06:12:35.014Z,997.27
2022-11-15T06:13:35.016Z,997.28
2022-11-15T06:14:35.123Z,997.32
2022-11-15T06:15:35.019Z,997.27
2022-11-15T06:16:35.234Z,997.32
2022-11-15T06:17:35.228Z,997.33
2022-11-15T06:18:34.938Z,997.34
2022-11-15T06:19:34.944Z,997.39
2022-11-15T06:20:35.454Z,997.34
2022-11-15T06:21:35.293Z,997.36
2022-11-15T06:22:35.573Z,997.33
2022-11-15T06:23:35.584Z,997.36
2022-11-15T06:24:34.927Z,997.35
2022-11-15T06:25:35.717Z,997.34
2022-11-15T06:26:34.953Z,997.43
2022-11-15T06:27:35.817Z,997.48
2022-11-15T06:28:35.012Z,997.47
2022-11-15T06:29:35.102Z,997.49
2022-11-15T06:30:35.893Z,997.44
2022-11-15T06:31:35.460Z,997.50
2022-11-15T06:32:35.712Z,997.54
2022-11-15T06:33:35.892Z,997.54
2022-11-15T06:34:34.876Z,997.54
2022-11-15T06:35:34.881Z,997.57
2022-11-15T06:36:34.894Z,997.55
2022-11-15T06:37:34.857Z,997.60
2022-11-15T06:38:34.832Z,997.58
2022-11-15T06:39:35.769Z,997.59
2022-11-15T06:40:34.886Z,997.59
2022-11-15T06:41:34.803Z,997.59
2022-11-15T06:42:34.919Z,997.62
2022-11-15T06:43:34.942Z,997.65
2022-11-15T06:44:34.812Z,997.65
2022-11-15T06:45:34.762Z,997.63
2022-11-15T06:46:34.911Z,997.64
2022-11-15T06:47:34.821Z,997.54
2022-11-15T06:48:34.741Z,997.61
2022-11-15T06:49:34.729Z,997.62
2022-11-15T06:50:34.748Z,997.65
2022-11-15T06:51:34.731Z,997.66
2022-11-15T06:52:34.719Z,997.69
2022-11-15T06:53:35.074Z,997.66
2022-11-15T06:54:35.613Z,997.75
2022-11-15T06:55:34.714Z,997.71
2022-11-15T06:56:34.734Z,997.70
2022-11-15T06:57:34.679Z,997.72
2022-11-15T06:58:34.689Z,997.77
2022-11-15T06:59:39.332Z,997.75
2022-11-15T07:00:34.661Z,997.77
2022-11-15T07:01:34.695Z,997.80
2022-11-15T07:02:34.657Z,997.81
2022-11-15T07:03:34.960Z,997.80
2022-11-15T07:04:34.626Z,997.80
2022-11-15T07:05:34.617Z,997.84
2022-11-15T07:06:34.667Z,997.85
2022-11-15T07:07:34.668Z,997.94
2022-11-15T07:08:35.548Z,997.90
2022-11-15T07:09:34.625Z,997.92
2022-11-15T07:10:34.619Z,997.87
2022-11-15T07:11:34.587Z,997.96
2022-11-15T07:12:34.602Z,997.89
2022-11-15T07:13:36.215Z,997.92
2022-11-15T07:14:34.577Z,997.95
2022-11-15T07:15:34.590Z,997.89
2022-11-15T07:16:34.617Z,997.96
2022-11-15T07:17:34.540Z,998.03
2022-11-15T07:18:34.554Z,998.03
2022-11-15T07:19:34.538Z,998.00
2022-11-15T07:20:35.987Z,997.97
2022-11-15T07:21:34.629Z,998.00
2022-11-15T07:22:34.504Z,997.98
2022-11-15T07:23:34.890Z,997.99
2022-11-15T07:24:34.504Z,998.04
2022-11-15T07:25:34.483Z,998.01
2022-11-15T07:26:34.532Z,998.01
2022-11-15T07:27:35.515Z,997.99
2022-11-15T07:28:34.522Z,998.01
2022-11-15T07:29:34.464Z,997.98
2022-11-15T07:30:35.483Z,998.02
2022-11-15T07:31:34.465Z,998.01
2022-11-15T07:32:34.473Z,998.04
2022-11-15T07:33:34.808Z,997.99
2022-11-15T07:34:34.440Z,998.01
2022-11-15T07:35:34.420Z,997.97
2022-11-15T07:36:34.540Z,997.98
2022-11-15T07:37:35.326Z,997.97
2022-11-15T07:38:39.420Z,998.00
2022-11-15T07:39:34.445Z,998.00
2022-11-15T07:40:34.440Z,998.03
2022-11-15T07:41:34.407Z,998.06
2022-11-15T07:42:34.390Z,998.03
2022-11-15T07:43:34.618Z,998.02
2022-11-15T07:44:34.391Z,998.01
2022-11-15T07:45:34.377Z,998.06
2022-11-15T07:46:34.477Z,998.08
2022-11-15T07:47:34.350Z,998.11
2022-11-15T07:48:43.857Z,998.07
2022-11-15T07:49:34.350Z,998.09
2022-11-15T07:50:34.350Z,998.06
2022-11-15T07:51:35.930Z,998.08
2022-11-15T07:52:34.321Z,998.08
2022-11-15T07:53:34.571Z,998.05
2022-11-15T07:54:35.221Z,998.10
2022-11-15T07:55:34.309Z,998.08
2022-11-15T07:56:34.298Z,998.09
2022-11-15T07:57:34.280Z,998.06
2022-11-15T07:58:34.340Z,998.07
2022-11-15T07:59:34.330Z,998.09
2022-11-15T08:00:35.191Z,998.08
2022-11-15T08:01:34.426Z,998.11
2022-11-15T08:02:34.427Z,997.93
2022-11-15T08:03:34.719Z,998.04
2022-11-15T08:04:34.257Z,998.05
2022-11-15T08:05:34.274Z,998.06
2022-11-15T08:06:34.264Z,998.00
2022-11-15T08:07:34.301Z,998.06
2022-11-15T08:08:34.266Z,998.07
2022-11-15T08:09:34.242Z,998.09
2022-11-15T08:10:39.278Z,998.06
2022-11-15T08:11:34.222Z,998.02
2022-11-15T08:12:34.274Z,998.04
2022-11-15T08:13:34.944Z,998.08
2022-11-15T08:14:34.191Z,998.04
2022-11-15T08:15:34.179Z,998.06
2022-11-15T08:16:35.173Z,997.95
2022-11-15T08:17:34.191Z,998.07
2022-11-15T08:18:34.155Z,997.94
2022-11-15T08:19:35.129Z,997.99
2022-11-15T08:20:34.212Z,997.98
2022-11-15T08:21:34.147Z,997.90
2022-11-15T08:22:34.128Z,997.98
2022-11-15T08:23:34.316Z,997.93
2022-11-15T08:24:34.106Z,997.93
2022-11-15T08:25:35.068Z,997.85
2022-11-15T08:26:34.096Z,997.82
2022-11-15T08:27:34.088Z,997.87
2022-11-15T08:28:34.057Z,997.89
2022-11-15T08:29:34.055Z,997.89
2022-11-15T08:30:34.107Z,997.87
2022-11-15T08:31:34.075Z,997.87
2022-11-15T08:32:34.047Z,997.88
2022-11-15T08:33:34.352Z,997.88
2022-11-15T08:34:34.076Z,997.85
2022-11-15T08:35:34.585Z,997.81
2022-11-15T08:36:41.756Z,997.83
2022-11-15T08:37:34.983Z,997.87
2022-11-15T08:38:35.130Z,997.83
2022-11-15T08:39:34.021Z,997.91
2022-11-15T08:40:34.009Z,997.86
2022-11-15T08:41:34.025Z,997.89
2022-11-15T08:42:34.968Z,997.84
2022-11-15T08:43:34.351Z,997.82
2022-11-15T08:44:33.995Z,997.84
2022-11-15T08:45:34.026Z,997.83
2022-11-15T08:46:33.986Z,997.83
2022-11-15T08:47:33.935Z,997.79
2022-11-15T08:48:34.186Z,997.83
2022-11-15T08:49:33.944Z,997.87
2022-11-15T08:50:33.916Z,997.87
2022-11-15T08:51:33.954Z,997.93
2022-11-15T08:52:33.944Z,997.89
2022-11-15T08:53:33.923Z,997.91
2022-11-15T08:54:33.923Z,997.91
2022-11-15T08:55:34.095Z,997.90
2022-11-15T08:56:34.699Z,997.85
2022-11-15T08:57:34.073Z,997.82
2022-11-15T08:58:34.143Z,997.89
2022-11-15T08:59:33.925Z,997.85
2022-11-15T09:00:33.882Z,997.92
2022-11-15T09:01:33.982Z,997.91
2022-11-15T09:02:33.894Z,997.88
2022-11-15T09:03:34.012Z,997.89
2022-11-15T09:04:33.840Z,997.92
2022-11-15T09:05:33.841Z,997.93
2022-11-15T09:06:33.881Z,997.86
2022-11-15T09:07:33.884Z,997.89
2022-11-15T09:08:56.880Z,997.89
2022-11-15T09:09:33.784Z,997.81
2022-11-15T09:10:34.591Z,997.76
2022-11-15T09:11:33.793Z,997.81
2022-11-15T09:12:34.653Z,997.76
2022-11-15T09:13:33.834Z,997.83
2022-11-15T09:14:33.872Z,997.80
2022-11-15T09:15:33.770Z,997.85
2022-11-15T09:16:33.772Z,997.80
2022-11-15T09:17:35.200Z,997.83
2022-11-15T09:18:34.379Z,997.78
2022-11-15T09:19:33.812Z,997.82
2022-11-15T09:20:33.711Z,997.80
2022-11-15T09:21:33.709Z,997.75
2022-11-15T09:22:33.700Z,997.75
2022-11-15T09:23:33.701Z,997.74
2022-11-15T09:24:33.712Z,997.77
2022-11-15T09:25:33.898Z,997.77
2022-11-15T09:26:34.587Z,997.74
2022-11-15T09:27:33.687Z,997.78
2022-11-15T09:28:33.927Z,997.77
2022-11-15T09:29:33.640Z,997.76
2022-11-15T09:30:33.662Z,997.76
2022-11-15T09:31:33.789Z,997.75
2022-11-15T09:32:38.816Z,997.72
2022-11-15T09:33:35.011Z,997.76
2022-11-15T09:34:33.681Z,997.77
2022-11-15T09:35:34.500Z,997.76
2022-11-15T09:36:33.639Z,997.78
2022-11-15T09:37:33.617Z,997.73
2022-11-15T09:38:35.059Z,997.78
2022-11-15T09:39:33.600Z,997.79
2022-11-15T09:40:33.575Z,997.76
2022-11-15T09:41:33.585Z,997.80
2022-11-15T09:42:33.559Z,997.76
2022-11-15T09:43:33.547Z,997.81
2022-11-15T09:44:33.538Z,997.80
2022-11-15T09:45:33.538Z,997.74
2022-11-15T09:46:33.560Z,997.74
2022-11-15T09:47:34.361Z,997.70
2022-11-15T09:48:35.299Z,997.74
2022-11-15T09:49:33.546Z,997.69
2022-11-15T09:50:34.357Z,997.74
2022-11-15T09:51:33.539Z,997.78
2022-11-15T09:52:33.498Z,997.77
2022-11-15T09:54:13.623Z,997.79
2022-11-15T09:55:33.496Z,997.75
2022-11-15T09:56:34.265Z,997.71
2022-11-15T09:57:33.668Z,997.73
2022-11-15T09:58:34.637Z,997.68
2022-11-15T09:59:33.490Z,997.68
2022-11-15T10:00:49.865Z,997.69
2022-11-15T10:01:34.343Z,997.66
2022-11-15T10:02:34.484Z,997.67
2022-11-15T10:03:34.366Z,997.66
2022-11-15T10:04:33.465Z,997.66
2022-11-15T10:05:33.444Z,997.66
2022-11-15T10:06:33.734Z,997.67
2022-11-15T10:07:33.472Z,997.63
2022-11-15T10:08:35.456Z,997.64
2022-11-15T10:09:33.555Z,997.63
2022-11-15T10:10:33.785Z,997.61
2022-11-15T10:11:38.501Z,997.62
2022-11-15T10:12:33.365Z,997.59
2022-11-15T10:13:33.372Z,997.57
2022-11-15T10:14:33.393Z,997.52
2022-11-15T10:15:34.236Z,997.52
2022-11-15T10:16:34.134Z,997.47
2022-11-15T10:17:34.294Z,997.43
2022-11-15T10:18:33.588Z,997.40
2022-11-15T10:19:33.354Z,997.39
2022-11-15T10:20:33.350Z,997.41
2022-11-15T10:21:33.463Z,997.35
2022-11-15T10:22:33.314Z,997.35
2022-11-15T10:23:34.235Z,997.29
2022-11-15T10:24:33.283Z,997.30
2022-11-15T10:25:34.302Z,997.27
2022-11-15T10:26:33.322Z,997.24
2022-11-15T10:27:34.103Z,997.27
2022-11-15T10:28:33.861Z,997.23
2022-11-15T10:29:34.194Z,997.26
2022-11-15T10:30:33.483Z,997.20
2022-11-15T10:31:34.261Z,997.26
2022-11-15T10:32:34.172Z,997.13
2022-11-15T10:33:33.330Z,997.20
2022-11-15T10:34:34.234Z,997.14
2022-11-15T10:35:33.335Z,997.12
2022-11-15T10:36:34.037Z,997.14
2022-11-15T10:37:34.196Z,997.20
2022-11-15T10:38:33.810Z,997.15
2022-11-15T10:39:33.344Z,997.15
2022-11-15T10:40:33.199Z,997.11
2022-11-15T10:41:33.212Z,997.13
2022-11-15T10:42:33.365Z,997.12
2022-11-15T10:43:33.372Z,997.12
2022-11-15T10:44:33.572Z,997.14
2022-11-15T10:45:34.171Z,997.15
2022-11-15T10:46:46.174Z,997.09
2022-11-15T10:47:39.293Z,997.06
2022-11-15T10:48:33.466Z,997.03
2022-11-15T10:49:33.150Z,996.99
2022-11-15T10:50:33.836Z,997.02
2022-11-15T10:51:34.103Z,997.03
2022-11-15T10:52:33.137Z,997.00
2022-11-15T10:53:33.232Z,996.97
2022-11-15T10:54:33.129Z,996.95
2022-11-15T10:55:33.449Z,997.02
2022-11-15T10:56:33.069Z,996.96
2022-11-15T10:57:33.054Z,996.95
2022-11-15T10:58:33.398Z,996.91
2022-11-15T10:59:38.810Z,996.88
2022-11-15T11:00:33.046Z,996.89
2022-11-15T11:01:33.264Z,996.82
2022-11-15T11:02:33.018Z,996.79
2022-11-15T11:03:33.008Z,996.75
2022-11-15T11:04:32.999Z,996.73
2022-11-15T11:05:36.570Z,996.69
2022-11-15T11:06:33.093Z,996.79
2022-11-15T11:07:33.076Z,996.66
2022-11-15T11:08:33.392Z,996.67
2022-11-15T11:09:32.970Z,996.66
2022-11-15T11:11:33.067Z,996.67
2022-11-15T11:12:33.167Z,996.65
2022-11-15T11:13:32.957Z,996.75
2022-11-15T11:14:32.935Z,996.67
2022-11-15T11:15:32.930Z,996.73
2022-11-15T11:16:37.890Z,996.66
2022-11-15T11:17:32.913Z,996.67
2022-11-15T11:18:33.321Z,996.66
2022-11-15T11:19:32.906Z,996.62
2022-11-15T11:20:32.887Z,996.61
2022-11-15T11:21:38.455Z,996.57
2022-11-15T11:22:32.879Z,996.51
2022-11-15T11:23:33.157Z,996.55
2022-11-15T11:24:32.856Z,996.54
2022-11-15T11:25:32.866Z,996.51
2022-11-15T11:26:32.977Z,996.49
2022-11-15T11:27:32.875Z,996.38
2022-11-15T11:28:33.161Z,996.41
2022-11-15T11:29:32.849Z,996.35
2022-11-15T11:30:32.847Z,996.35
2022-11-15T11:31:32.867Z,996.41
2022-11-15T11:32:32.818Z,996.37
2022-11-15T11:33:32.827Z,996.32
2022-11-15T11:34:32.844Z,996.31
2022-11-15T11:35:32.864Z,996.34
2022-11-15T11:36:32.844Z,996.29
2022-11-15T11:37:33.788Z,996.27
2022-11-15T11:38:33.083Z,996.30
2022-11-15T11:39:32.775Z,996.38
2022-11-15T11:40:33.136Z,996.26
2022-11-15T11:41:32.957Z,996.27
2022-11-15T11:42:35.430Z,996.22
2022-11-15T11:43:33.574Z,996.25
2022-11-15T11:44:33.575Z,996.23
2022-11-15T11:45:32.724Z,996.19
2022-11-15T11:46:32.723Z,996.21
2022-11-15T11:47:32.733Z,996.16
2022-11-15T11:48:33.920Z,996.13
2022-11-15T11:49:32.704Z,996.16
2022-11-15T11:50:34.145Z,996.15
2022-11-15T11:51:32.814Z,996.16
2022-11-15T11:52:33.014Z,996.14
2022-11-15T11:53:32.732Z,996.16
2022-11-15T11:54:32.673Z,996.14
2022-11-15T11:55:33.045Z,996.19
2022-11-15T11:56:32.654Z,996.11
2022-11-15T11:57:32.682Z,996.14
2022-11-15T11:58:32.887Z,996.15
2022-11-15T11:59:32.671Z,996.11
2022-11-15T12:00:32.619Z,996.08
2022-11-15T12:01:32.792Z,996.08
2022-11-15T12:02:32.763Z,996.09
2022-11-15T12:03:33.601Z,996.04
2022-11-15T12:04:32.901Z,996.08
2022-11-15T12:05:32.901Z,996.10
2022-11-15T12:06:32.593Z,996.05
2022-11-15T12:07:32.663Z,996.02
2022-11-15T12:08:33.130Z,996.05
2022-11-15T12:09:32.564Z,996.05
2022-11-15T12:10:32.550Z,995.97
2022-11-15T12:11:32.550Z,996.05
2022-11-15T12:12:32.581Z,996.05
2022-11-15T12:13:32.563Z,995.99
2022-11-15T12:14:32.600Z,996.01
2022-11-15T12:15:33.522Z,996.00
2022-11-15T12:16:32.559Z,995.96
2022-11-15T12:17:33.529Z,995.96
2022-11-15T12:18:32.786Z,995.95
2022-11-15T12:19:32.511Z,995.93
2022-11-15T12:20:33.502Z,995.89
2022-11-15T12:21:32.593Z,995.88
2022-11-15T12:22:32.560Z,995.85
2022-11-15T12:23:32.528Z,995.86
2022-11-15T12:24:33.391Z,995.78
2022-11-15T12:25:32.469Z,995.76
2022-11-15T12:26:33.028Z,995.80
2022-11-15T12:27:33.361Z,995.80
2022-11-15T12:28:32.971Z,995.80
2022-11-15T12:29:32.430Z,995.77
2022-11-15T12:30:32.426Z,995.81
2022-11-15T12:31:33.499Z,995.76
2022-11-15T12:32:32.458Z,995.74
2022-11-15T12:33:32.418Z,995.69
2022-11-15T12:34:32.416Z,995.66
2022-11-15T12:35:37.506Z,995.68
2022-11-15T12:36:32.481Z,995.62
2022-11-15T12:37:32.417Z,995.65
2022-11-15T12:38:33.505Z,995.62
2022-11-15T12:39:32.496Z,995.66
2022-11-15T12:40:32.349Z,995.59
2022-11-15T12:41:32.718Z,995.63
2022-11-15T12:42:32.337Z,995.64
2022-11-15T12:43:32.369Z,995.62
2022-11-15T12:44:32.373Z,995.72
2022-11-15T12:45:32.378Z,995.59
2022-11-15T12:46:32.376Z,995.57
2022-11-15T12:47:32.350Z,995.61
2022-11-15T12:48:32.676Z,995.52
2022-11-15T12:49:32.386Z,995.53
2022-11-15T12:50:32.306Z,995.55
2022-11-15T12:51:32.297Z,995.50
2022-11-15T12:52:33.758Z,995.51
2022-11-15T12:53:32.297Z,995.54
2022-11-15T12:54:33.307Z,995.52
2022-11-15T12:55:33.222Z,995.50
2022-11-15T12:56:33.127Z,995.51
2022-11-15T12:57:32.301Z,995.48
2022-11-15T12:58:32.438Z,995.49
2022-11-15T12:59:32.846Z,995.51
2022-11-15T13:00:32.244Z,995.46
2022-11-15T13:01:32.369Z,995.50
2022-11-15T13:02:32.244Z,995.55
2022-11-15T13:03:32.196Z,995.47